createdAt,value
2018-09-09T00:09:48.990Z,0.0
2018-09-09T00:20:02.251Z,0.0
2018-09-09T00:30:16.495Z,0.0
2018-09-09T00:40:30.842Z,0.0
2018-09-09T00:50:45.179Z,0.0
2018-09-09T01:00:59.808Z,0.0
2018-09-09T01:11:11.347Z,0.0
2018-09-09T01:21:25.435Z,0.0
2018-09-09T01:31:36.504Z,0.0
2018-09-09T01:41:48.003Z,0.0
2018-09-09T01:52:01.913Z,0.0
2018-09-09T02:02:15.188Z,0.0
2018-09-09T02:12:28.711Z,0.0
2018-09-09T02:22:42.711Z,0.0
2018-09-09T02:32:56.119Z,0.0
2018-09-09T02:43:10.544Z,0.0
2018-09-09T02:53:25.081Z,0.0
2018-09-09T03:03:38.523Z,0.0
2018-09-09T03:13:51.684Z,0.0
2018-09-09T03:24:05.080Z,0.0
2018-09-09T03:34:19.210Z,0.0
2018-09-09T03:44:32.908Z,0.0
2018-09-09T03:54:46.926Z,0.0
2018-09-09T04:05:01.594Z,0.0
2018-09-09T04:15:15.544Z,0.0
2018-09-09T04:25:29.292Z,0.0
2018-09-09T04:35:42.762Z,8.0
2018-09-09T04:45:56.693Z,52.0
2018-09-09T04:56:41.384Z,176.0
2018-09-09T05:07:26.609Z,292.0
2018-09-09T05:17:37.698Z,332.0
2018-09-09T05:28:23.539Z,808.0
2018-09-09T05:38:37.705Z,1116.0
2018-09-09T05:48:48.611Z,932.0
2018-09-09T05:59:02.288Z,1284.0
2018-09-09T06:09:16.411Z,1844.0
2018-09-09T06:19:30.696Z,2516.0
2018-09-09T06:29:44.593Z,2672.0
2018-09-09T06:39:57.878Z,2704.0
2018-09-09T06:50:11.329Z,3140.0
2018-09-09T07:27:51.454Z,3960.0
2018-09-09T07:38:04.885Z,4720.0
2018-09-09T07:48:19.195Z,7608.0
2018-09-09T07:58:33.360Z,9860.0
2018-09-09T08:08:47.234Z,10320.0
2018-09-09T08:19:33.113Z,18528.0
2018-09-09T08:30:18.789Z,53120.0
2018-09-09T08:40:32.180Z,39200.0
2018-09-09T08:50:46.388Z,34176.0
2018-09-09T09:01:03.683Z,23296.0
2018-09-09T09:11:17.913Z,60512.0
2018-09-09T09:21:35.036Z,60032.0
2018-09-09T09:32:20.583Z,70912.0
2018-09-09T09:42:34.238Z,75168.0
2018-09-09T09:52:46.298Z,39232.0
2018-09-09T10:03:01.770Z,48608.0
2018-09-09T10:13:16.223Z,76544.0
2018-09-09T10:23:29.916Z,69888.0
2018-09-09T10:34:15.580Z,58816.0
2018-09-09T10:45:02.064Z,66592.0
2018-09-09T10:55:15.545Z,71168.0
2018-09-09T11:05:29.958Z,77632.0
2018-09-09T11:15:44.685Z,38560.0
2018-09-09T11:25:58.534Z,38272.0
2018-09-09T11:36:25.289Z,87648.0
2018-09-09T11:46:37.543Z,84864.0
2018-09-09T11:56:51.600Z,77728.0
2018-09-09T12:07:05.218Z,79872.0
2018-09-09T12:17:19.665Z,70912.0
2018-09-09T12:27:33.635Z,77312.0
2018-09-09T12:38:26.102Z,71072.0
2018-09-09T12:49:50.222Z,70912.0
2018-09-09T13:00:03.851Z,68224.0
2018-09-09T13:10:17.251Z,39072.0
2018-09-09T13:20:31.960Z,76800.0
2018-09-09T13:30:45.596Z,31968.0
2018-09-09T13:41:00.054Z,59904.0
2018-09-09T13:51:14.064Z,39200.0
2018-09-09T14:01:27.599Z,13944.0
2018-09-09T14:11:41.500Z,19712.0
2018-09-09T14:21:55.830Z,11516.0
2018-09-09T14:32:09.900Z,8424.0
2018-09-09T14:42:23.979Z,9216.0
2018-09-09T14:52:37.606Z,11844.0
2018-09-09T15:02:52.205Z,44256.0
2018-09-09T15:13:05.818Z,13316.0
2018-09-09T15:23:19.971Z,10724.0
2018-09-09T15:33:31.119Z,8668.0
2018-09-09T15:43:45.868Z,6792.0
2018-09-09T15:54:32.916Z,6664.0
2018-09-09T16:04:47.418Z,4532.0
2018-09-09T16:15:01.991Z,4372.0
2018-09-09T16:25:48.167Z,3752.0
2018-09-09T16:36:32.854Z,2500.0
2018-09-09T16:47:17.798Z,2260.0
2018-09-09T16:57:33.027Z,1660.0
2018-09-09T17:08:19.286Z,1256.0
2018-09-09T17:18:33.610Z,1164.0
2018-09-09T17:28:50.272Z,952.0
2018-09-09T17:39:06.679Z,644.0
2018-09-09T17:49:21.982Z,380.0
2018-09-09T18:00:07.541Z,160.0
2018-09-09T18:10:58.920Z,52.0
2018-09-09T18:21:13.888Z,12.0
2018-09-09T18:31:28.425Z,0.0
2018-09-09T18:41:45.731Z,0.0
2018-09-09T18:51:57.233Z,0.0
2018-09-09T19:02:11.397Z,0.0
2018-09-09T19:12:26.256Z,0.0
2018-09-09T19:22:39.633Z,0.0
2018-09-09T19:32:54.381Z,0.0
2018-09-09T19:43:08.065Z,0.0
2018-09-09T19:53:22.391Z,0.0
2018-09-09T20:03:36.359Z,0.0
2018-09-09T20:14:08.312Z,0.0
2018-09-09T20:24:22.356Z,0.0
2018-09-09T20:34:36.090Z,0.0
2018-09-09T20:44:51.094Z,0.0
2018-09-09T20:55:04.370Z,0.0
2018-09-09T21:05:15.725Z,0.0
2018-09-09T21:15:27.348Z,0.0
2018-09-09T21:25:41.190Z,0.0
2018-09-09T21:35:52.842Z,0.0
2018-09-09T21:46:38.137Z,0.0
2018-09-09T21:57:06.738Z,0.0
2018-09-09T22:07:21.026Z,0.0
2018-09-09T22:17:34.969Z,0.0
2018-09-09T22:27:48.486Z,0.0
2018-09-09T22:38:03.860Z,0.0
2018-09-09T22:48:17.768Z,0.0
2018-09-09T22:58:54.695Z,0.0
2018-09-09T23:09:39.960Z,0.0
2018-09-09T23:19:54.607Z,0.0
2018-09-09T23:30:08.348Z,0.0
2018-09-09T23:40:21.775Z,0.0
2018-09-09T23:50:57.274Z,0.0
